createdAt,value
2019-03-22T00:02:13.966Z,100189.70
2019-03-22T00:04:46.204Z,100190.84
2019-03-22T00:07:20.715Z,100190.98
2019-03-22T00:09:55.074Z,100188.35
2019-03-22T00:12:29.135Z,100188.66
2019-03-22T00:15:03.573Z,100184.70
2019-03-22T00:17:36.387Z,100192.41
2019-03-22T00:20:10.362Z,100183.34
2019-03-22T00:22:44.081Z,100191.89
2019-03-22T00:25:17.367Z,100187.58
2019-03-22T00:27:51.209Z,100181.31
2019-03-22T00:30:25.206Z,100185.39
2019-03-22T00:32:59.330Z,100182.92
2019-03-22T00:35:33.248Z,100181.87
2019-03-22T00:38:08.166Z,100190.59
2019-03-22T00:40:42.059Z,100182.87
2019-03-22T00:43:16.474Z,100181.55
2019-03-22T00:45:49.431Z,100176.94
2019-03-22T00:48:24.958Z,100177.24
2019-03-22T00:50:59.345Z,100178.38
2019-03-22T00:53:33.263Z,100173.42
2019-03-22T00:56:07.276Z,100170.27
2019-03-22T00:58:41.446Z,100176.67
2019-03-22T01:01:16.306Z,100179.59
2019-03-22T01:03:48.451Z,100169.55
2019-03-22T01:06:22.368Z,100170.33
2019-03-22T01:08:54.335Z,100164.57
2019-03-22T01:11:28.637Z,100163.39
2019-03-22T01:14:02.486Z,100154.19
2019-03-22T01:16:34.380Z,100158.30
2019-03-22T01:19:08.191Z,100156.15
2019-03-22T01:21:40.618Z,100162.23
2019-03-22T01:24:13.503Z,100158.91
2019-03-22T01:26:46.484Z,100163.20
2019-03-22T01:29:18.771Z,100158.91
2019-03-22T01:31:52.434Z,100158.59
2019-03-22T01:34:24.348Z,100159.37
2019-03-22T01:37:00.246Z,100154.90
2019-03-22T01:39:33.767Z,100155.53
2019-03-22T01:42:08.303Z,100156.95
2019-03-22T01:44:41.579Z,100155.77
2019-03-22T01:47:13.812Z,100149.98
2019-03-22T01:49:47.539Z,100113.80
2019-03-22T01:52:19.702Z,100151.41
2019-03-22T01:54:51.681Z,100146.77
2019-03-22T01:57:25.635Z,100147.07
2019-03-22T01:59:57.849Z,100149.99
2019-03-22T02:02:31.670Z,100150.95
2019-03-22T02:05:03.840Z,100146.34
2019-03-22T02:07:37.399Z,100147.02
2019-03-22T02:10:10.366Z,100140.42
2019-03-22T02:12:42.789Z,100142.22
2019-03-22T02:15:17.331Z,100136.91
2019-03-22T02:17:51.864Z,100141.48
2019-03-22T02:20:24.631Z,100139.16
2019-03-22T02:22:57.807Z,100137.66
2019-03-22T02:25:30.796Z,100133.71
2019-03-22T02:28:04.624Z,100130.61
2019-03-22T02:30:39.340Z,100125.00
2019-03-22T02:33:14.089Z,100130.73
2019-03-22T02:35:46.775Z,100129.40
2019-03-22T02:38:18.705Z,100122.83
2019-03-22T02:40:52.571Z,100125.45
2019-03-22T02:43:28.041Z,100125.59
2019-03-22T02:46:01.863Z,100133.15
2019-03-22T02:48:33.822Z,100121.91
2019-03-22T02:51:07.906Z,100129.98
2019-03-22T02:53:39.944Z,100126.39
2019-03-22T02:56:13.047Z,100129.02
2019-03-22T02:58:45.965Z,100123.77
2019-03-22T03:01:19.828Z,100125.37
2019-03-22T03:03:53.894Z,100127.65
2019-03-22T03:06:28.286Z,100128.61
2019-03-22T03:09:02.119Z,100131.59
2019-03-22T03:11:35.308Z,100127.65
2019-03-22T03:14:11.436Z,100125.37
2019-03-22T03:16:44.361Z,100129.80
2019-03-22T03:19:17.428Z,100126.34
2019-03-22T03:21:50.965Z,100122.20
2019-03-22T03:24:25.081Z,100125.66
2019-03-22T03:26:57.901Z,100121.73
2019-03-22T03:29:32.682Z,100118.75
2019-03-22T03:32:06.944Z,100122.69
2019-03-22T03:34:40.245Z,100120.52
2019-03-22T03:37:13.080Z,100120.99
2019-03-22T03:39:45.028Z,100117.83
2019-03-22T03:42:19.193Z,100115.97
2019-03-22T03:44:52.061Z,100126.48
2019-03-22T03:47:27.261Z,100123.72
2019-03-22T03:49:59.371Z,100123.24
2019-03-22T03:52:34.115Z,100126.83
2019-03-22T03:55:08.081Z,100117.98
2019-03-22T03:57:40.229Z,100126.48
2019-03-22T04:00:13.677Z,100123.18
2019-03-22T04:02:46.612Z,100129.39
2019-03-22T04:05:19.103Z,100128.43
2019-03-22T04:07:51.563Z,100120.55
2019-03-22T04:10:26.304Z,100115.95
2019-03-22T04:13:02.822Z,100122.83
2019-03-22T04:15:37.192Z,100118.89
2019-03-22T04:18:11.207Z,100115.66
2019-03-22T04:20:45.767Z,100122.54
2019-03-22T04:23:19.182Z,100117.26
2019-03-22T04:25:52.186Z,100119.88
2019-03-22T04:28:25.123Z,100115.75
2019-03-22T04:30:58.304Z,100118.70
2019-03-22T04:33:31.267Z,100116.27
2019-03-22T04:36:03.863Z,100119.69
2019-03-22T04:38:36.419Z,100128.34
2019-03-22T04:41:10.521Z,100133.59
2019-03-22T04:43:45.723Z,100140.83
2019-03-22T04:46:20.543Z,100137.91
2019-03-22T04:48:53.379Z,100139.86
2019-03-22T04:51:28.123Z,100144.47
2019-03-22T04:54:06.475Z,100142.20
2019-03-22T04:56:41.267Z,100139.89
2019-03-22T04:59:19.400Z,100141.91
2019-03-22T05:01:55.386Z,100137.69
2019-03-22T05:04:30.936Z,100141.44
2019-03-22T05:07:04.554Z,100137.81
2019-03-22T05:09:38.014Z,100135.67
2019-03-22T05:12:14.277Z,100146.88
2019-03-22T05:14:48.597Z,100139.19
2019-03-22T05:17:23.180Z,100136.75
2019-03-22T05:19:58.213Z,100144.63
2019-03-22T05:22:34.009Z,100144.09
2019-03-22T05:25:09.229Z,100146.81
2019-03-22T05:27:45.625Z,100147.20
2019-03-22T05:31:16.645Z,100154.84
2019-03-22T05:33:48.592Z,100160.03
2019-03-22T05:36:23.680Z,100159.82
2019-03-22T05:38:57.690Z,100160.92
2019-03-22T05:41:32.373Z,100162.55
2019-03-22T05:44:04.408Z,100169.51
2019-03-22T05:46:38.213Z,100167.25
2019-03-22T05:49:10.761Z,100173.69
2019-03-22T05:51:43.630Z,100170.30
2019-03-22T05:54:16.216Z,100165.81
2019-03-22T05:56:49.717Z,100162.95
2019-03-22T05:59:23.154Z,100172.41
2019-03-22T06:01:56.963Z,100175.92
2019-03-22T06:04:29.904Z,100173.38
2019-03-22T06:07:04.017Z,100172.45
2019-03-22T06:09:36.870Z,100168.60
2019-03-22T06:12:09.735Z,100166.20
2019-03-22T06:14:43.082Z,100161.84
2019-03-22T06:17:15.839Z,100165.48
2019-03-22T06:19:50.954Z,100165.55
2019-03-22T06:22:22.895Z,100164.61
2019-03-22T06:24:54.806Z,100165.34
2019-03-22T06:27:27.934Z,100158.66
2019-03-22T06:30:02.266Z,100160.16
2019-03-22T06:32:36.168Z,100159.70
2019-03-22T06:35:10.190Z,100159.70
2019-03-22T06:37:46.399Z,100165.48
2019-03-22T06:40:20.941Z,100164.81
2019-03-22T06:42:54.691Z,100171.73
2019-03-22T06:45:28.374Z,100169.73
2019-03-22T06:48:01.553Z,100169.03
2019-03-22T06:50:34.153Z,100164.89
2019-03-22T06:53:07.395Z,100162.87
2019-03-22T06:55:40.926Z,100160.58
2019-03-22T06:58:13.065Z,100155.55
2019-03-22T07:00:46.905Z,100156.63
2019-03-22T07:03:18.855Z,100160.03
2019-03-22T07:05:53.031Z,100157.12
2019-03-22T07:08:25.195Z,100153.38
2019-03-22T07:10:58.244Z,100147.05
2019-03-22T07:13:31.134Z,100146.47
2019-03-22T07:16:03.581Z,100133.97
2019-03-22T07:18:36.535Z,100126.91
2019-03-22T07:21:08.869Z,100119.97
2019-03-22T07:23:41.252Z,100120.94
2019-03-22T07:26:13.561Z,100121.57
2019-03-22T07:28:47.084Z,100126.34
2019-03-22T07:31:20.435Z,100119.99
2019-03-22T07:33:54.931Z,100116.42
2019-03-22T07:36:27.840Z,100113.51
2019-03-22T07:39:01.222Z,100105.13
2019-03-22T07:41:34.441Z,100099.67
2019-03-22T07:44:07.728Z,100104.78
2019-03-22T07:46:40.294Z,100098.90
2019-03-22T07:49:14.170Z,100099.73
2019-03-22T07:51:46.472Z,99939.28
2019-03-22T07:54:21.030Z,100100.56
2019-03-22T07:56:55.334Z,100099.97
2019-03-22T07:59:29.921Z,100101.58
2019-03-22T08:02:03.838Z,100096.07
2019-03-22T08:04:37.253Z,100094.47
2019-03-22T08:07:11.786Z,100093.67
2019-03-22T08:09:45.432Z,100093.09
2019-03-22T08:12:19.589Z,100091.02
2019-03-22T08:14:52.651Z,100083.52
2019-03-22T08:17:25.338Z,100080.82
2019-03-22T08:19:58.522Z,100086.20
2019-03-22T08:22:30.751Z,100074.35
2019-03-22T08:25:04.783Z,100073.09
2019-03-22T08:27:37.485Z,100075.38
2019-03-22T08:30:10.440Z,100071.73
2019-03-22T08:32:43.417Z,100066.42
2019-03-22T08:35:16.355Z,100071.73
2019-03-22T08:37:52.898Z,100066.73
2019-03-22T08:40:25.361Z,100066.73
2019-03-22T08:42:57.552Z,100061.20
2019-03-22T08:45:31.398Z,100058.95
2019-03-22T08:48:05.010Z,100060.25
2019-03-22T08:50:37.456Z,100057.75
2019-03-22T08:53:10.412Z,100049.88
2019-03-22T08:55:43.627Z,100049.09
2019-03-22T08:58:18.476Z,100050.95
2019-03-22T09:00:57.283Z,100050.06
2019-03-22T09:03:25.619Z,100048.08
2019-03-22T09:05:59.103Z,100058.05
2019-03-22T09:08:31.747Z,100056.07
2019-03-22T09:11:04.130Z,100046.48
2019-03-22T09:13:37.742Z,100042.62
2019-03-22T09:16:10.593Z,100038.92
2019-03-22T09:18:43.286Z,100031.81
2019-03-22T09:21:16.601Z,100038.92
2019-03-22T09:23:49.598Z,100029.78
2019-03-22T09:26:23.324Z,100034.59
2019-03-22T09:28:55.832Z,100036.80
2019-03-22T09:31:29.675Z,100041.88
2019-03-22T09:34:04.242Z,100035.66
2019-03-22T09:36:39.783Z,100037.79
2019-03-22T09:39:13.605Z,100031.52
2019-03-22T09:41:46.666Z,100028.81
2019-03-22T09:44:19.863Z,100035.80
2019-03-22T09:46:53.825Z,100021.38
2019-03-22T09:49:26.382Z,100020.34
2019-03-22T09:51:58.776Z,100006.63
2019-03-22T09:54:32.012Z,100005.89
2019-03-22T09:57:04.348Z,99997.72
2019-03-22T09:59:40.220Z,99991.42
2019-03-22T10:02:14.849Z,99982.64
2019-03-22T10:04:46.766Z,99988.17
2019-03-22T10:07:19.879Z,99981.76
2019-03-22T10:09:53.689Z,99978.80
2019-03-22T10:12:26.891Z,99970.75
2019-03-22T10:14:58.975Z,99984.95
2019-03-22T10:17:31.277Z,99982.77
2019-03-22T10:20:04.833Z,99992.44
2019-03-22T10:22:37.962Z,99990.92
2019-03-22T10:25:11.242Z,99990.50
2019-03-22T10:27:44.022Z,99984.91
2019-03-22T10:30:17.334Z,99982.69
2019-03-22T10:32:50.329Z,99981.58
2019-03-22T10:35:26.332Z,99993.67
2019-03-22T10:38:00.769Z,99983.42
2019-03-22T10:40:33.455Z,99983.38
2019-03-22T10:43:06.996Z,99986.41
2019-03-22T10:45:39.221Z,99981.95
2019-03-22T10:48:14.352Z,99974.45
2019-03-22T10:50:48.136Z,99968.00
2019-03-22T10:53:20.090Z,99978.50
2019-03-22T10:55:53.042Z,99977.48
2019-03-22T10:58:26.196Z,99969.16
2019-03-22T11:01:00.124Z,99962.34
2019-03-22T11:03:32.355Z,99973.31
2019-03-22T11:06:04.404Z,99959.40
2019-03-22T11:08:37.167Z,99962.67
2019-03-22T11:11:11.789Z,99953.88
2019-03-22T11:13:46.162Z,99941.97
2019-03-22T11:16:19.134Z,99948.63
2019-03-22T11:18:51.093Z,99962.64
2019-03-22T11:21:24.350Z,99959.23
2019-03-22T11:23:56.266Z,99967.58
2019-03-22T11:26:28.298Z,99971.14
2019-03-22T11:29:00.705Z,99954.72
2019-03-22T11:31:39.902Z,99943.22
2019-03-22T11:34:08.448Z,99952.27
2019-03-22T11:36:43.493Z,99950.80
2019-03-22T11:39:17.467Z,99940.63
2019-03-22T11:41:53.793Z,99939.83
2019-03-22T11:44:28.302Z,99935.53
2019-03-22T11:47:01.559Z,99931.50
2019-03-22T11:49:36.430Z,99931.20
2019-03-22T11:52:10.826Z,99924.48
2019-03-22T11:54:45.291Z,99926.94
2019-03-22T11:57:20.186Z,99922.32
2019-03-22T11:59:53.133Z,99926.37
2019-03-22T12:02:27.522Z,99926.59
2019-03-22T12:05:02.043Z,99929.08
2019-03-22T12:07:34.526Z,99923.09
2019-03-22T12:10:10.037Z,99933.36
2019-03-22T12:12:46.064Z,99909.33
2019-03-22T12:15:20.374Z,99916.13
2019-03-22T12:17:54.643Z,99904.75
2019-03-22T12:20:29.352Z,99906.63
2019-03-22T12:23:03.312Z,99908.27
2019-03-22T12:25:37.592Z,99903.39
2019-03-22T12:28:12.687Z,99896.13
2019-03-22T12:30:49.177Z,99895.31
2019-03-22T12:33:22.646Z,99882.05
2019-03-22T12:36:00.743Z,99888.02
2019-03-22T12:38:33.513Z,99881.80
2019-03-22T12:41:07.656Z,99876.10
2019-03-22T12:43:40.496Z,99880.70
2019-03-22T12:46:13.600Z,99866.11
2019-03-22T12:48:45.455Z,99866.91
2019-03-22T12:51:19.565Z,99862.31
2019-03-22T12:53:51.572Z,99858.79
2019-03-22T12:56:25.632Z,99850.67
2019-03-22T12:58:58.626Z,99839.86
2019-03-22T13:01:31.730Z,99840.95
2019-03-22T13:04:04.433Z,99844.47
2019-03-22T13:06:37.697Z,99838.25
2019-03-22T13:09:11.087Z,99834.44
2019-03-22T13:11:45.107Z,99840.11
2019-03-22T13:14:18.726Z,99839.31
2019-03-22T13:16:53.644Z,99834.73
2019-03-22T13:19:25.882Z,99830.38
2019-03-22T13:21:58.683Z,99839.83
2019-03-22T13:24:31.686Z,99830.61
2019-03-22T13:27:03.631Z,99823.88
2019-03-22T13:29:38.148Z,99821.13
2019-03-22T13:32:11.251Z,99818.99
2019-03-22T13:34:46.970Z,99830.11
2019-03-22T13:37:21.484Z,99835.29
2019-03-22T13:39:57.473Z,99829.33
2019-03-22T13:42:31.874Z,99829.58
2019-03-22T13:45:06.995Z,99819.34
2019-03-22T13:47:40.821Z,99816.89
2019-03-22T13:50:14.012Z,99820.14
2019-03-22T13:52:48.433Z,99823.64
2019-03-22T13:55:23.001Z,99810.63
2019-03-22T13:57:55.965Z,99798.47
2019-03-22T14:00:29.095Z,99803.09
2019-03-22T14:03:03.002Z,99796.28
2019-03-22T14:05:35.985Z,99797.10
2019-03-22T14:08:09.297Z,99792.78
2019-03-22T14:10:45.272Z,99791.16
2019-03-22T14:13:20.007Z,99797.63
2019-03-22T14:15:53.405Z,99794.14
2019-03-22T14:18:26.209Z,99795.48
2019-03-22T14:21:00.229Z,99798.72
2019-03-22T14:23:36.666Z,99790.62
2019-03-22T14:26:15.716Z,99798.73
2019-03-22T14:28:55.752Z,99802.78
2019-03-22T14:31:27.966Z,99804.43
2019-03-22T14:34:00.056Z,99792.80
2019-03-22T14:36:34.862Z,99784.17
2019-03-22T14:39:10.634Z,99782.55
2019-03-22T14:41:45.566Z,99786.61
2019-03-22T14:44:25.296Z,99783.91
2019-03-22T14:46:56.070Z,99777.16
2019-03-22T14:49:29.390Z,99775.79
2019-03-22T14:52:02.309Z,99771.20
2019-03-22T14:54:46.734Z,99769.85
2019-03-22T14:57:26.546Z,99767.16
2019-03-22T15:00:16.920Z,99772.83
2019-03-22T15:02:59.236Z,99770.94
2019-03-22T15:05:33.932Z,99775.52
2019-03-22T15:08:16.614Z,99776.63
2019-03-22T15:17:44.042Z,99765.81
2019-03-22T15:20:49.356Z,99769.86
2019-03-22T15:24:03.002Z,99773.92
2019-03-22T15:26:53.602Z,99768.78
2019-03-22T15:30:06.566Z,99769.59
2019-03-22T15:33:06.700Z,99761.50
2019-03-22T15:36:09.685Z,99768.50
2019-03-22T15:39:08.569Z,99770.39
2019-03-22T15:41:54.779Z,99769.33
2019-03-22T15:44:38.794Z,99775.48
2019-03-22T15:47:19.605Z,99773.31
2019-03-22T15:49:54.268Z,99790.05
2019-03-22T15:52:30.689Z,99771.95
2019-03-22T15:55:06.185Z,99758.70
2019-03-22T15:57:43.958Z,99758.70
2019-03-22T16:00:18.994Z,99778.16
2019-03-22T16:02:52.490Z,99762.21
2019-03-22T16:05:26.797Z,99760.28
2019-03-22T16:08:01.484Z,99764.61
2019-03-22T16:10:34.547Z,99755.98
2019-03-22T16:13:07.652Z,99748.95
2019-03-22T16:15:41.968Z,99757.32
2019-03-22T16:18:16.555Z,99756.75
2019-03-22T16:20:56.144Z,99749.98
2019-03-22T16:23:27.661Z,99755.09
2019-03-22T16:26:03.852Z,99755.36
2019-03-22T16:28:39.806Z,99759.94
2019-03-22T16:31:18.358Z,99768.80
2019-03-22T16:33:54.967Z,99761.23
2019-03-22T16:36:28.701Z,99762.85
2019-03-22T16:39:04.888Z,99747.70
2019-03-22T16:41:38.875Z,99754.09
2019-03-22T16:44:10.907Z,99762.15
2019-03-22T16:46:44.686Z,99762.15
2019-03-22T16:49:16.815Z,99763.39
2019-03-22T16:51:50.712Z,99762.30
2019-03-22T16:54:22.858Z,99761.70
2019-03-22T16:56:59.027Z,99753.58
2019-03-22T16:59:32.486Z,99761.55
2019-03-22T17:02:05.013Z,99759.13
2019-03-22T17:04:38.894Z,99749.92
2019-03-22T17:07:13.879Z,99752.55
2019-03-22T17:09:46.622Z,99753.56
2019-03-22T17:12:19.999Z,99752.67
2019-03-22T17:14:54.660Z,99745.23
2019-03-22T17:17:26.936Z,99750.29
2019-03-22T17:19:59.140Z,99745.88
2019-03-22T17:22:32.093Z,99744.39
2019-03-22T17:25:05.241Z,99749.15
2019-03-22T17:27:37.909Z,99746.04
2019-03-22T17:30:11.569Z,99745.47
2019-03-22T17:32:43.907Z,99740.79
2019-03-22T17:35:16.781Z,99740.31
2019-03-22T17:37:49.389Z,99739.87
2019-03-22T17:40:23.134Z,99739.87
2019-03-22T17:42:56.882Z,99742.70
2019-03-22T17:45:29.556Z,99737.43
2019-03-22T17:48:02.542Z,99747.81
2019-03-22T17:50:34.992Z,99745.30
2019-03-22T17:53:08.105Z,99748.89
2019-03-22T17:55:41.292Z,99748.60
2019-03-22T17:58:13.930Z,99744.50
2019-03-22T18:00:47.676Z,99749.44
2019-03-22T18:03:20.272Z,99753.23
2019-03-22T18:05:53.155Z,99753.88
2019-03-22T18:08:27.700Z,99759.42
2019-03-22T18:11:00.362Z,99755.91
2019-03-22T18:13:33.077Z,99754.57
2019-03-22T18:16:05.054Z,99752.29
2019-03-22T18:18:38.275Z,99752.34
2019-03-22T18:21:11.293Z,99758.34
2019-03-22T18:23:44.277Z,99758.11
2019-03-22T18:26:18.387Z,99761.54
2019-03-22T18:28:51.524Z,99759.45
2019-03-22T18:31:26.355Z,99766.69
2019-03-22T18:33:59.033Z,99770.88
2019-03-22T18:36:33.052Z,99775.42
2019-03-22T18:39:07.105Z,99776.16
2019-03-22T18:41:41.270Z,99788.83
2019-03-22T18:44:14.175Z,99786.62
2019-03-22T18:46:46.247Z,99783.94
2019-03-22T18:49:18.125Z,99782.20
2019-03-22T18:51:50.461Z,99788.55
2019-03-22T18:54:23.657Z,99789.89
2019-03-22T18:56:58.503Z,99791.19
2019-03-22T18:59:32.464Z,99786.09
2019-03-22T19:02:05.373Z,99794.30
2019-03-22T19:04:43.896Z,99793.80
2019-03-22T19:07:11.357Z,99797.04
2019-03-22T19:09:44.710Z,99797.55
2019-03-22T19:12:17.557Z,99790.55
2019-03-22T19:14:49.478Z,99794.58
2019-03-22T19:17:23.549Z,99795.91
2019-03-22T19:19:57.318Z,99794.05
2019-03-22T19:22:34.683Z,99797.55
2019-03-22T19:25:09.044Z,99796.68
2019-03-22T19:27:42.702Z,99795.64
2019-03-22T19:30:17.813Z,99797.74
2019-03-22T19:32:51.274Z,99802.02
2019-03-22T19:35:23.463Z,99797.95
2019-03-22T19:37:57.172Z,99804.95
2019-03-22T19:40:29.901Z,99803.00
2019-03-22T19:43:02.402Z,99798.23
2019-03-22T19:45:37.608Z,99793.76
2019-03-22T19:48:11.776Z,99799.14
2019-03-22T19:50:45.865Z,99791.30
2019-03-22T19:53:20.715Z,99790.42
2019-03-22T19:55:55.070Z,99787.63
2019-03-22T19:58:29.674Z,99793.78
2019-03-22T20:01:03.687Z,99795.14
2019-03-22T20:03:37.834Z,99795.14
2019-03-22T20:06:11.778Z,99794.05
2019-03-22T20:08:47.687Z,99794.53
2019-03-22T20:11:21.739Z,99791.40
2019-03-22T20:13:54.894Z,99785.91
2019-03-22T20:16:27.706Z,99785.47
2019-03-22T20:18:59.707Z,99782.63
2019-03-22T20:21:33.942Z,99786.05
2019-03-22T20:24:08.636Z,99789.31
2019-03-22T20:26:40.672Z,99782.20
2019-03-22T20:29:15.882Z,99782.20
2019-03-22T20:31:47.769Z,99784.76
2019-03-22T20:34:20.782Z,99783.91
2019-03-22T20:36:53.906Z,99769.89
2019-03-22T20:39:26.705Z,99769.89
2019-03-22T20:42:00.197Z,99773.66
2019-03-22T20:44:34.218Z,99769.07
2019-03-22T20:47:08.901Z,99768.43
2019-03-22T20:49:41.800Z,99764.87
2019-03-22T20:52:14.811Z,99764.87
2019-03-22T20:54:48.118Z,99773.91
2019-03-22T20:57:20.807Z,99773.91
2019-03-22T20:59:53.486Z,99769.88
2019-03-22T21:02:26.813Z,99783.14
2019-03-22T21:04:58.944Z,99776.25
2019-03-22T21:07:33.338Z,99777.70
2019-03-22T21:10:05.854Z,99771.33
2019-03-22T21:12:37.763Z,99775.43
2019-03-22T21:15:23.561Z,99784.28
2019-03-22T21:17:46.901Z,99779.23
2019-03-22T21:20:21.030Z,99779.59
2019-03-22T21:22:54.074Z,99781.98
2019-03-22T21:25:26.950Z,99780.17
2019-03-22T21:27:59.242Z,99781.14
2019-03-22T21:30:31.870Z,99775.97
2019-03-22T21:33:05.216Z,99773.54
2019-03-22T21:35:39.053Z,99771.11
2019-03-22T21:38:11.452Z,99772.14
2019-03-22T21:40:44.473Z,99772.45
2019-03-22T21:43:21.962Z,99772.97
2019-03-22T21:45:53.782Z,99772.15
2019-03-22T21:48:27.664Z,99772.78
2019-03-22T21:51:02.804Z,99773.83
2019-03-22T21:53:36.022Z,99774.23
2019-03-22T21:56:08.172Z,99773.54
2019-03-22T21:58:41.350Z,99779.17
2019-03-22T22:01:14.109Z,99783.27
2019-03-22T22:03:47.091Z,99783.27
2019-03-22T22:06:20.347Z,99787.85
2019-03-22T22:08:54.428Z,99787.05
2019-03-22T22:11:29.055Z,99796.45
2019-03-22T22:14:02.131Z,99795.31
2019-03-22T22:16:36.228Z,99796.41
2019-03-22T22:19:11.754Z,99795.70
2019-03-22T22:21:46.060Z,99792.33
2019-03-22T22:24:21.878Z,99792.09
2019-03-22T22:26:54.209Z,99786.06
2019-03-22T22:29:27.757Z,99787.79
2019-03-22T22:31:59.678Z,99788.08
2019-03-22T22:34:33.169Z,99797.99
2019-03-22T22:37:05.161Z,99788.16
2019-03-22T22:39:38.295Z,99789.28
2019-03-22T22:42:11.302Z,99787.92
2019-03-22T22:44:59.213Z,99786.59
2019-03-22T22:47:36.267Z,99781.85
2019-03-22T22:50:08.897Z,99787.55
2019-03-22T22:52:41.666Z,99780.70
2019-03-22T22:55:14.495Z,99780.80
2019-03-22T22:57:49.320Z,99784.25
2019-03-22T23:00:29.723Z,99783.48
2019-03-22T23:03:02.322Z,99780.11
2019-03-22T23:05:34.501Z,99783.48
2019-03-22T23:08:08.401Z,99778.73
2019-03-22T23:10:42.404Z,99782.00
2019-03-22T23:13:14.311Z,99784.10
2019-03-22T23:15:47.352Z,99782.55
2019-03-22T23:18:19.429Z,99780.78
2019-03-22T23:20:51.294Z,99778.52
2019-03-22T23:23:23.461Z,99784.42
2019-03-22T23:25:57.336Z,99779.18
2019-03-22T23:28:29.777Z,99781.42
2019-03-22T23:31:02.374Z,99784.96
2019-03-22T23:33:36.401Z,99781.69
2019-03-22T23:36:08.535Z,99769.91
2019-03-22T23:38:42.501Z,99785.73
2019-03-22T23:41:14.761Z,99781.84
2019-03-22T23:43:48.545Z,99774.27
2019-03-22T23:46:20.381Z,99774.33
2019-03-22T23:48:53.590Z,99772.06
2019-03-22T23:51:26.639Z,99773.45
2019-03-22T23:54:00.778Z,99773.21
2019-03-22T23:56:35.348Z,99766.97
2019-03-22T23:59:08.516Z,99751.77
